馬祖南竿航空站 - ATIS

METAR RCFG 140300Z 16006KT 130V210 9999 SCT012 29/27 Q1009 NOSIG RMK 21006KT/R03 MAX WND 08KT/R21 18004KT/NJL A2981(Y)=

站台狀態:Online
最後更新:2022-08-14 11:30:02